sensor_id;sensor_type;location;lat;lon;timestamp;temperature;humidity
17659;DHT22;8948;51.534;8.262;2023-08-30T00:02:38;15.90;68.20
17659;DHT22;8948;51.534;8.262;2023-08-30T00:07:38;16.00;68.90
17659;DHT22;8948;51.534;8.262;2023-08-30T00:12:40;16.00;68.40
17659;DHT22;8948;51.534;8.262;2023-08-30T00:17:40;16.00;69.10
17659;DHT22;8948;51.534;8.262;2023-08-30T00:22:41;16.00;68.40
17659;DHT22;8948;51.534;8.262;2023-08-30T00:27:41;16.10;68.60
17659;DHT22;8948;51.534;8.262;2023-08-30T00:32:42;15.90;69.60
17659;DHT22;8948;51.534;8.262;2023-08-30T00:37:43;15.80;70.40
17659;DHT22;8948;51.534;8.262;2023-08-30T00:42:43;15.80;70.30
17659;DHT22;8948;51.534;8.262;2023-08-30T00:47:44;15.90;69.60
17659;DHT22;8948;51.534;8.262;2023-08-30T00:52:44;16.00;69.20
17659;DHT22;8948;51.534;8.262;2023-08-30T00:57:45;16.10;68.90
17659;DHT22;8948;51.534;8.262;2023-08-30T01:02:46;16.20;68.90
17659;DHT22;8948;51.534;8.262;2023-08-30T01:07:46;16.20;69.10
17659;DHT22;8948;51.534;8.262;2023-08-30T01:12:49;16.10;68.60
17659;DHT22;8948;51.534;8.262;2023-08-30T01:17:54;16.00;69.50
17659;DHT22;8948;51.534;8.262;2023-08-30T01:28:06;15.80;70.70
17659;DHT22;8948;51.534;8.262;2023-08-30T01:33:09;15.80;71.00
17659;DHT22;8948;51.534;8.262;2023-08-30T01:38:10;15.80;71.20
17659;DHT22;8948;51.534;8.262;2023-08-30T01:43:11;15.80;71.30
17659;DHT22;8948;51.534;8.262;2023-08-30T01:48:15;15.80;71.10
17659;DHT22;8948;51.534;8.262;2023-08-30T01:53:16;15.80;71.50
17659;DHT22;8948;51.534;8.262;2023-08-30T01:58:18;15.90;70.70
17659;DHT22;8948;51.534;8.262;2023-08-30T02:03:18;16.00;70.60
17659;DHT22;8948;51.534;8.262;2023-08-30T02:08:20;16.10;70.40
17659;DHT22;8948;51.534;8.262;2023-08-30T02:13:26;16.10;70.10
17659;DHT22;8948;51.534;8.262;2023-08-30T02:18:28;16.00;70.90
17659;DHT22;8948;51.534;8.262;2023-08-30T02:23:29;15.90;70.50
17659;DHT22;8948;51.534;8.262;2023-08-30T02:28:29;15.90;70.70
17659;DHT22;8948;51.534;8.262;2023-08-30T02:33:30;15.60;71.60
17659;DHT22;8948;51.534;8.262;2023-08-30T02:38:30;15.60;71.20
17659;DHT22;8948;51.534;8.262;2023-08-30T02:43:31;15.50;71.70
17659;DHT22;8948;51.534;8.262;2023-08-30T02:48:32;15.30;72.20
17659;DHT22;8948;51.534;8.262;2023-08-30T02:53:33;15.40;71.70
17659;DHT22;8948;51.534;8.262;2023-08-30T02:58:34;15.40;71.30
17659;DHT22;8948;51.534;8.262;2023-08-30T03:03:34;15.30;71.00
17659;DHT22;8948;51.534;8.262;2023-08-30T03:08:35;15.10;72.00
17659;DHT22;8948;51.534;8.262;2023-08-30T03:13:36;15.00;71.70
17659;DHT22;8948;51.534;8.262;2023-08-30T03:18:38;15.10;76.80
17659;DHT22;8948;51.534;8.262;2023-08-30T03:23:39;15.40;76.30
17659;DHT22;8948;51.534;8.262;2023-08-30T03:28:41;15.80;74.10
17659;DHT22;8948;51.534;8.262;2023-08-30T03:33:42;15.80;72.00
17659;DHT22;8948;51.534;8.262;2023-08-30T03:38:44;16.00;73.20
17659;DHT22;8948;51.534;8.262;2023-08-30T03:43:45;16.20;71.80
17659;DHT22;8948;51.534;8.262;2023-08-30T03:48:46;16.50;71.10
17659;DHT22;8948;51.534;8.262;2023-08-30T03:53:46;16.50;71.00
17659;DHT22;8948;51.534;8.262;2023-08-30T03:58:47;16.60;71.10
17659;DHT22;8948;51.534;8.262;2023-08-30T04:03:47;16.70;70.30
17659;DHT22;8948;51.534;8.262;2023-08-30T04:08:48;16.60;69.90
17659;DHT22;8948;51.534;8.262;2023-08-30T04:13:48;16.40;69.30
17659;DHT22;8948;51.534;8.262;2023-08-30T04:18:49;16.20;69.80
17659;DHT22;8948;51.534;8.262;2023-08-30T04:23:49;16.00;70.10
17659;DHT22;8948;51.534;8.262;2023-08-30T04:28:50;15.90;70.70
17659;DHT22;8948;51.534;8.262;2023-08-30T04:33:50;15.80;71.10
17659;DHT22;8948;51.534;8.262;2023-08-30T04:38:52;15.70;71.00
17659;DHT22;8948;51.534;8.262;2023-08-30T04:43:53;15.60;71.20
17659;DHT22;8948;51.534;8.262;2023-08-30T04:48:54;15.40;71.60
17659;DHT22;8948;51.534;8.262;2023-08-30T04:53:54;15.40;71.70
17659;DHT22;8948;51.534;8.262;2023-08-30T04:58:55;15.40;71.90
17659;DHT22;8948;51.534;8.262;2023-08-30T05:03:57;15.30;72.20
17659;DHT22;8948;51.534;8.262;2023-08-30T05:08:58;15.40;72.10
17659;DHT22;8948;51.534;8.262;2023-08-30T05:13:58;15.40;71.90
17659;DHT22;8948;51.534;8.262;2023-08-30T05:18:59;15.40;72.20
17659;DHT22;8948;51.534;8.262;2023-08-30T05:23:59;15.50;72.00
17659;DHT22;8948;51.534;8.262;2023-08-30T05:29:00;15.50;72.60
17659;DHT22;8948;51.534;8.262;2023-08-30T05:34:01;15.50;72.00
17659;DHT22;8948;51.534;8.262;2023-08-30T05:39:01;15.60;72.10
17659;DHT22;8948;51.534;8.262;2023-08-30T05:44:03;15.50;72.20
17659;DHT22;8948;51.534;8.262;2023-08-30T05:49:04;15.60;72.20
17659;DHT22;8948;51.534;8.262;2023-08-30T05:59:19;15.70;72.20
17659;DHT22;8948;51.534;8.262;2023-08-30T06:04:19;15.80;72.40
17659;DHT22;8948;51.534;8.262;2023-08-30T06:09:20;15.90;72.00
17659;DHT22;8948;51.534;8.262;2023-08-30T06:14:21;16.00;71.80
17659;DHT22;8948;51.534;8.262;2023-08-30T06:19:22;16.10;71.20
17659;DHT22;8948;51.534;8.262;2023-08-30T06:24:23;16.20;71.60
17659;DHT22;8948;51.534;8.262;2023-08-30T06:29:23;16.20;71.80
17659;DHT22;8948;51.534;8.262;2023-08-30T06:34:24;16.20;71.20
17659;DHT22;8948;51.534;8.262;2023-08-30T06:39:25;16.30;69.90
17659;DHT22;8948;51.534;8.262;2023-08-30T06:44:25;16.30;70.50
17659;DHT22;8948;51.534;8.262;2023-08-30T06:49:26;16.30;70.80
17659;DHT22;8948;51.534;8.262;2023-08-30T06:54:26;16.40;70.10
17659;DHT22;8948;51.534;8.262;2023-08-30T06:59:27;16.50;70.30
17659;DHT22;8948;51.534;8.262;2023-08-30T07:04:28;16.50;69.90
17659;DHT22;8948;51.534;8.262;2023-08-30T07:09:30;16.50;68.80
17659;DHT22;8948;51.534;8.262;2023-08-30T07:14:32;16.50;68.10
17659;DHT22;8948;51.534;8.262;2023-08-30T07:19:32;16.60;69.00
17659;DHT22;8948;51.534;8.262;2023-08-30T07:24:33;16.80;69.20
17659;DHT22;8948;51.534;8.262;2023-08-30T07:29:33;16.90;68.60
17659;DHT22;8948;51.534;8.262;2023-08-30T07:34:34;17.00;69.50
17659;DHT22;8948;51.534;8.262;2023-08-30T07:39:35;17.30;68.40
17659;DHT22;8948;51.534;8.262;2023-08-30T07:44:35;17.40;68.50
17659;DHT22;8948;51.534;8.262;2023-08-30T07:49:36;17.70;66.10
17659;DHT22;8948;51.534;8.262;2023-08-30T07:54:37;17.80;67.20
17659;DHT22;8948;51.534;8.262;2023-08-30T07:59:39;18.10;66.10
17659;DHT22;8948;51.534;8.262;2023-08-30T08:04:39;18.20;64.20
17659;DHT22;8948;51.534;8.262;2023-08-30T08:09:40;18.20;64.50
17659;DHT22;8948;51.534;8.262;2023-08-30T08:14:40;18.40;63.30
17659;DHT22;8948;51.534;8.262;2023-08-30T08:19:41;18.50;63.60
17659;DHT22;8948;51.534;8.262;2023-08-30T08:24:43;18.70;61.80
17659;DHT22;8948;51.534;8.262;2023-08-30T08:29:46;18.90;61.80
17659;DHT22;8948;51.534;8.262;2023-08-30T08:34:46;19.20;61.90
17659;DHT22;8948;51.534;8.262;2023-08-30T08:39:47;19.50;61.20
17659;DHT22;8948;51.534;8.262;2023-08-30T08:44:54;19.70;57.70
17659;DHT22;8948;51.534;8.262;2023-08-30T08:49:57;19.90;57.30
17659;DHT22;8948;51.534;8.262;2023-08-30T08:54:59;20.30;58.60
17659;DHT22;8948;51.534;8.262;2023-08-30T09:00:00;20.40;56.60
17659;DHT22;8948;51.534;8.262;2023-08-30T09:05:00;20.80;54.40
17659;DHT22;8948;51.534;8.262;2023-08-30T09:10:02;20.80;56.50
17659;DHT22;8948;51.534;8.262;2023-08-30T09:15:03;21.10;54.70
17659;DHT22;8948;51.534;8.262;2023-08-30T09:20:08;21.10;52.70
17659;DHT22;8948;51.534;8.262;2023-08-30T09:25:22;21.20;51.20
17659;DHT22;8948;51.534;8.262;2023-08-30T09:30:24;21.40;51.90
17659;DHT22;8948;51.534;8.262;2023-08-30T09:35:24;21.80;53.00
17659;DHT22;8948;51.534;8.262;2023-08-30T09:40:25;21.80;52.50
17659;DHT22;8948;51.534;8.262;2023-08-30T09:45:26;21.50;51.40
17659;DHT22;8948;51.534;8.262;2023-08-30T09:50:28;21.10;51.50
17659;DHT22;8948;51.534;8.262;2023-08-30T09:55:30;20.90;52.20
17659;DHT22;8948;51.534;8.262;2023-08-30T10:00:31;20.80;53.90
17659;DHT22;8948;51.534;8.262;2023-08-30T10:05:33;20.60;52.80
17659;DHT22;8948;51.534;8.262;2023-08-30T10:10:36;20.50;51.90
17659;DHT22;8948;51.534;8.262;2023-08-30T10:15:45;20.40;52.70
17659;DHT22;8948;51.534;8.262;2023-08-30T10:20:48;20.60;52.60
17659;DHT22;8948;51.534;8.262;2023-08-30T10:25:50;20.40;52.20
17659;DHT22;8948;51.534;8.262;2023-08-30T10:30:52;20.10;52.20
17659;DHT22;8948;51.534;8.262;2023-08-30T10:35:53;19.90;53.80
17659;DHT22;8948;51.534;8.262;2023-08-30T10:41:06;19.80;54.80
17659;DHT22;8948;51.534;8.262;2023-08-30T10:46:07;19.90;55.00
17659;DHT22;8948;51.534;8.262;2023-08-30T10:51:39;19.90;54.60
17659;DHT22;8948;51.534;8.262;2023-08-30T10:56:55;20.10;55.90
17659;DHT22;8948;51.534;8.262;2023-08-30T11:02:01;20.90;52.70
17659;DHT22;8948;51.534;8.262;2023-08-30T11:07:04;21.50;52.60
17659;DHT22;8948;51.534;8.262;2023-08-30T11:12:06;22.70;51.70
17659;DHT22;8948;51.534;8.262;2023-08-30T11:17:10;22.50;49.60
17659;DHT22;8948;51.534;8.262;2023-08-30T11:22:12;21.90;49.40
17659;DHT22;8948;51.534;8.262;2023-08-30T11:27:12;21.50;49.20
17659;DHT22;8948;51.534;8.262;2023-08-30T11:32:16;21.10;52.40
17659;DHT22;8948;51.534;8.262;2023-08-30T11:37:17;21.10;51.30
17659;DHT22;8948;51.534;8.262;2023-08-30T11:42:17;21.40;51.40
17659;DHT22;8948;51.534;8.262;2023-08-30T11:47:19;21.50;51.30
17659;DHT22;8948;51.534;8.262;2023-08-30T11:52:21;21.50;51.00
17659;DHT22;8948;51.534;8.262;2023-08-30T11:57:23;21.60;50.10
17659;DHT22;8948;51.534;8.262;2023-08-30T12:02:26;21.40;50.20
17659;DHT22;8948;51.534;8.262;2023-08-30T12:07:27;21.50;52.00
17659;DHT22;8948;51.534;8.262;2023-08-30T12:12:28;21.50;52.90
17659;DHT22;8948;51.534;8.262;2023-08-30T12:17:28;21.30;52.30
17659;DHT22;8948;51.534;8.262;2023-08-30T12:22:39;20.90;52.80
17659;DHT22;8948;51.534;8.262;2023-08-30T12:27:39;20.70;53.90
17659;DHT22;8948;51.534;8.262;2023-08-30T12:32:40;20.50;56.00
17659;DHT22;8948;51.534;8.262;2023-08-30T12:37:41;20.10;56.30
17659;DHT22;8948;51.534;8.262;2023-08-30T12:42:41;19.90;57.00
17659;DHT22;8948;51.534;8.262;2023-08-30T12:47:42;19.50;63.40
17659;DHT22;8948;51.534;8.262;2023-08-30T12:52:42;19.10;66.00
17659;DHT22;8948;51.534;8.262;2023-08-30T12:57:43;19.00;66.70
17659;DHT22;8948;51.534;8.262;2023-08-30T13:02:46;19.20;67.90
17659;DHT22;8948;51.534;8.262;2023-08-30T13:07:47;19.40;66.30
17659;DHT22;8948;51.534;8.262;2023-08-30T13:12:48;19.50;67.40
17659;DHT22;8948;51.534;8.262;2023-08-30T13:17:50;19.40;67.60
17659;DHT22;8948;51.534;8.262;2023-08-30T13:22:51;19.30;67.80
17659;DHT22;8948;51.534;8.262;2023-08-30T13:27:52;19.00;68.00
17659;DHT22;8948;51.534;8.262;2023-08-30T13:32:53;18.60;69.50
17659;DHT22;8948;51.534;8.262;2023-08-30T13:37:53;18.40;70.90
17659;DHT22;8948;51.534;8.262;2023-08-30T13:42:54;18.00;72.70
17659;DHT22;8948;51.534;8.262;2023-08-30T13:47:55;18.00;72.00
17659;DHT22;8948;51.534;8.262;2023-08-30T13:52:58;17.90;72.60
17659;DHT22;8948;51.534;8.262;2023-08-30T13:57:59;18.10;73.30
17659;DHT22;8948;51.534;8.262;2023-08-30T14:02:59;18.30;72.60
17659;DHT22;8948;51.534;8.262;2023-08-30T14:08:00;18.40;72.30
17659;DHT22;8948;51.534;8.262;2023-08-30T14:13:01;18.50;71.80
17659;DHT22;8948;51.534;8.262;2023-08-30T14:18:01;18.30;72.20
17659;DHT22;8948;51.534;8.262;2023-08-30T14:23:02;18.40;70.40
17659;DHT22;8948;51.534;8.262;2023-08-30T14:28:04;18.50;72.60
17659;DHT22;8948;51.534;8.262;2023-08-30T14:33:04;18.60;70.20
17659;DHT22;8948;51.534;8.262;2023-08-30T14:38:05;18.50;71.60
17659;DHT22;8948;51.534;8.262;2023-08-30T14:43:05;18.60;70.80
17659;DHT22;8948;51.534;8.262;2023-08-30T14:48:06;18.70;70.30
17659;DHT22;8948;51.534;8.262;2023-08-30T14:53:08;18.30;70.40
17659;DHT22;8948;51.534;8.262;2023-08-30T14:58:09;18.20;69.90
17659;DHT22;8948;51.534;8.262;2023-08-30T15:03:10;18.10;70.40
17659;DHT22;8948;51.534;8.262;2023-08-30T15:08:10;18.00;70.50
17659;DHT22;8948;51.534;8.262;2023-08-30T15:13:11;17.90;70.90
17659;DHT22;8948;51.534;8.262;2023-08-30T15:18:11;17.90;71.20
17659;DHT22;8948;51.534;8.262;2023-08-30T15:23:13;18.00;70.70
17659;DHT22;8948;51.534;8.262;2023-08-30T15:28:20;18.00;71.10
17659;DHT22;8948;51.534;8.262;2023-08-30T15:33:20;18.20;71.20
17659;DHT22;8948;51.534;8.262;2023-08-30T15:38:21;18.30;69.00
17659;DHT22;8948;51.534;8.262;2023-08-30T15:43:22;18.10;70.60
17659;DHT22;8948;51.534;8.262;2023-08-30T15:48:23;18.00;69.80
17659;DHT22;8948;51.534;8.262;2023-08-30T15:53:24;17.70;69.80
17659;DHT22;8948;51.534;8.262;2023-08-30T15:58:24;17.60;71.40
17659;DHT22;8948;51.534;8.262;2023-08-30T16:03:25;17.50;70.50
17659;DHT22;8948;51.534;8.262;2023-08-30T16:08:26;17.40;70.20
17659;DHT22;8948;51.534;8.262;2023-08-30T16:13:29;17.20;71.50
17659;DHT22;8948;51.534;8.262;2023-08-30T16:18:29;17.10;70.60
17659;DHT22;8948;51.534;8.262;2023-08-30T16:23:30;16.90;70.90
17659;DHT22;8948;51.534;8.262;2023-08-30T16:28:32;16.80;71.60
17659;DHT22;8948;51.534;8.262;2023-08-30T16:33:33;16.70;71.00
17659;DHT22;8948;51.534;8.262;2023-08-30T16:38:33;16.50;72.10
17659;DHT22;8948;51.534;8.262;2023-08-30T16:43:34;16.40;72.00
17659;DHT22;8948;51.534;8.262;2023-08-30T16:48:34;16.60;71.80
17659;DHT22;8948;51.534;8.262;2023-08-30T16:53:35;16.70;71.80
17659;DHT22;8948;51.534;8.262;2023-08-30T16:58:36;16.70;71.00
17659;DHT22;8948;51.534;8.262;2023-08-30T17:03:37;16.80;69.80
17659;DHT22;8948;51.534;8.262;2023-08-30T17:08:37;17.00;70.10
17659;DHT22;8948;51.534;8.262;2023-08-30T17:13:38;17.10;69.20
17659;DHT22;8948;51.534;8.262;2023-08-30T17:18:38;17.20;69.30
17659;DHT22;8948;51.534;8.262;2023-08-30T17:23:40;17.20;69.80
17659;DHT22;8948;51.534;8.262;2023-08-30T17:28:40;17.20;69.00
17659;DHT22;8948;51.534;8.262;2023-08-30T17:33:41;17.00;70.80
17659;DHT22;8948;51.534;8.262;2023-08-30T17:38:43;17.00;69.90
17659;DHT22;8948;51.534;8.262;2023-08-30T17:43:43;16.70;71.20
17659;DHT22;8948;51.534;8.262;2023-08-30T17:48:44;16.40;72.30
17659;DHT22;8948;51.534;8.262;2023-08-30T17:53:44;16.60;71.60
17659;DHT22;8948;51.534;8.262;2023-08-30T17:58:49;16.60;71.50
17659;DHT22;8948;51.534;8.262;2023-08-30T18:03:50;16.60;72.50
17659;DHT22;8948;51.534;8.262;2023-08-30T18:08:51;16.60;71.30
17659;DHT22;8948;51.534;8.262;2023-08-30T18:13:51;16.60;70.90
17659;DHT22;8948;51.534;8.262;2023-08-30T18:18:52;16.40;71.20
17659;DHT22;8948;51.534;8.262;2023-08-30T18:24:12;16.30;71.60
17659;DHT22;8948;51.534;8.262;2023-08-30T18:29:14;16.50;71.00
17659;DHT22;8948;51.534;8.262;2023-08-30T18:34:16;16.40;70.60
17659;DHT22;8948;51.534;8.262;2023-08-30T18:39:17;16.20;70.40
17659;DHT22;8948;51.534;8.262;2023-08-30T18:44:17;16.10;71.00
17659;DHT22;8948;51.534;8.262;2023-08-30T18:49:18;16.10;71.80
17659;DHT22;8948;51.534;8.262;2023-08-30T18:54:19;16.10;71.70
17659;DHT22;8948;51.534;8.262;2023-08-30T18:59:21;16.10;72.20
17659;DHT22;8948;51.534;8.262;2023-08-30T19:04:22;16.00;71.90
17659;DHT22;8948;51.534;8.262;2023-08-30T19:09:22;15.90;72.70
17659;DHT22;8948;51.534;8.262;2023-08-30T19:14:23;15.90;72.80
17659;DHT22;8948;51.534;8.262;2023-08-30T19:19:25;16.00;72.10
17659;DHT22;8948;51.534;8.262;2023-08-30T19:24:28;15.90;72.80
17659;DHT22;8948;51.534;8.262;2023-08-30T19:29:29;15.90;73.40
17659;DHT22;8948;51.534;8.262;2023-08-30T19:34:30;15.90;72.80
17659;DHT22;8948;51.534;8.262;2023-08-30T19:39:30;15.80;73.30
17659;DHT22;8948;51.534;8.262;2023-08-30T19:44:31;15.70;74.00
17659;DHT22;8948;51.534;8.262;2023-08-30T19:49:32;15.60;74.20
17659;DHT22;8948;51.534;8.262;2023-08-30T19:54:33;15.70;74.10
17659;DHT22;8948;51.534;8.262;2023-08-30T19:59:34;15.80;73.50
17659;DHT22;8948;51.534;8.262;2023-08-30T20:04:34;15.70;74.50
17659;DHT22;8948;51.534;8.262;2023-08-30T20:09:35;15.60;75.00
17659;DHT22;8948;51.534;8.262;2023-08-30T20:14:36;15.50;75.00
17659;DHT22;8948;51.534;8.262;2023-08-30T20:19:36;15.40;75.80
17659;DHT22;8948;51.534;8.262;2023-08-30T20:24:37;15.40;75.50
17659;DHT22;8948;51.534;8.262;2023-08-30T20:29:37;15.50;74.90
17659;DHT22;8948;51.534;8.262;2023-08-30T20:34:38;15.30;75.20
17659;DHT22;8948;51.534;8.262;2023-08-30T20:39:38;15.20;75.50
17659;DHT22;8948;51.534;8.262;2023-08-30T20:44:39;15.20;75.40
17659;DHT22;8948;51.534;8.262;2023-08-30T20:49:40;15.20;75.90
17659;DHT22;8948;51.534;8.262;2023-08-30T20:54:41;15.10;76.20
17659;DHT22;8948;51.534;8.262;2023-08-30T20:59:42;15.20;75.90
17659;DHT22;8948;51.534;8.262;2023-08-30T21:04:43;15.20;75.80
17659;DHT22;8948;51.534;8.262;2023-08-30T21:09:43;15.30;75.80
17659;DHT22;8948;51.534;8.262;2023-08-30T21:14:44;15.30;75.20
17659;DHT22;8948;51.534;8.262;2023-08-30T21:19:45;15.20;75.20
17659;DHT22;8948;51.534;8.262;2023-08-30T21:24:45;15.30;73.60
17659;DHT22;8948;51.534;8.262;2023-08-30T21:29:46;15.30;73.90
17659;DHT22;8948;51.534;8.262;2023-08-30T21:34:46;15.20;73.20
17659;DHT22;8948;51.534;8.262;2023-08-30T21:39:47;15.20;73.30
17659;DHT22;8948;51.534;8.262;2023-08-30T21:44:48;15.20;73.50
17659;DHT22;8948;51.534;8.262;2023-08-30T21:49:49;15.30;73.50
17659;DHT22;8948;51.534;8.262;2023-08-30T21:54:50;15.30;72.60
17659;DHT22;8948;51.534;8.262;2023-08-30T21:59:50;15.10;73.40
17659;DHT22;8948;51.534;8.262;2023-08-30T22:04:51;15.10;73.60
17659;DHT22;8948;51.534;8.262;2023-08-30T22:09:52;15.20;73.80
17659;DHT22;8948;51.534;8.262;2023-08-30T22:14:53;15.20;73.70
17659;DHT22;8948;51.534;8.262;2023-08-30T22:19:53;15.30;73.90
17659;DHT22;8948;51.534;8.262;2023-08-30T22:24:54;15.20;74.00
17659;DHT22;8948;51.534;8.262;2023-08-30T22:29:55;15.00;74.00
17659;DHT22;8948;51.534;8.262;2023-08-30T22:34:56;14.90;74.00
17659;DHT22;8948;51.534;8.262;2023-08-30T22:39:59;14.80;74.10
17659;DHT22;8948;51.534;8.262;2023-08-30T22:45:01;14.80;74.00
17659;DHT22;8948;51.534;8.262;2023-08-30T22:50:03;14.70;74.30
17659;DHT22;8948;51.534;8.262;2023-08-30T22:55:05;14.70;74.30
17659;DHT22;8948;51.534;8.262;2023-08-30T23:00:06;14.60;74.10
17659;DHT22;8948;51.534;8.262;2023-08-30T23:05:09;14.40;74.50
17659;DHT22;8948;51.534;8.262;2023-08-30T23:10:10;14.40;74.60
17659;DHT22;8948;51.534;8.262;2023-08-30T23:15:11;14.40;73.70
17659;DHT22;8948;51.534;8.262;2023-08-30T23:20:12;14.30;73.80
17659;DHT22;8948;51.534;8.262;2023-08-30T23:25:13;14.30;73.30
17659;DHT22;8948;51.534;8.262;2023-08-30T23:30:14;14.30;73.60
17659;DHT22;8948;51.534;8.262;2023-08-30T23:35:14;14.20;74.00
17659;DHT22;8948;51.534;8.262;2023-08-30T23:40:15;14.30;73.30
17659;DHT22;8948;51.534;8.262;2023-08-30T23:45:15;14.30;73.30
17659;DHT22;8948;51.534;8.262;2023-08-30T23:50:16;14.20;74.40
17659;DHT22;8948;51.534;8.262;2023-08-30T23:55:17;14.10;75.10
